Thetford Center, Vermont
Current Conditions -  °F | °C
As of 1:53 PM on Friday 31 Oct 2014 (Local Time) from KLEB Reporting Station
Overcast Overcast  
Wind Chill: 49°   Ceiling: 4500
Heat Index: 49°   Visibility: 10mi
Dew Point: 30°   Wind: 3mph
Humidity: 48%   Direction: 170°S
Pressure: 29.98"   Gusts: NA
Location:  43.83°N, 72.25°W
Report Text: KLEB 311753Z 17003KT 10SM BKN045 OVC050 09/M01 A2998 RMK AO2 SLP156 T00941011 10106 20044 58016
Loading
Personal Weather Stations






























Interactive Weather Map
Tropical Storm Tracking
New forecast layout! Learn more

10-Day Weather Forecast

Advertisements
Track Severe Weather on mobile